Time;durP1;ratioP1;P1;durP2;ratioP2;P2;SDS_P1;SDS_P2;PMS_P1;PMS_P2;Temp;Humidity;BMP_temperature;BMP_pressure;BME280_temperature;BME280_humidity;BME280_pressure;Samples;Min_cycle;Max_cycle;Signal;HPM_P1;HPM_P2
2021/01/04 00:04:48;;;;;;;20.40;11.13;;;;;;;;;;10443232;28;20736;-72
2021/01/04 00:10:00;;;;;;;21.53;10.83;;;;;;;;;;10406997;28;20190;-69
2021/01/04 00:15:07;;;;;;;21.30;11.83;;;;;;;;;;10419905;28;20263;-70
2021/01/04 00:20:14;;;;;;;20.03;10.67;;;;;;;;;;10436736;28;20206;-70
2021/01/04 00:25:24;;;;;;;20.53;10.90;;;;;;;;;;10419657;28;20292;-70
2021/01/04 00:30:27;;;;;;;18.47;10.43;;;;;;;;;;10428271;28;20684;-71
2021/01/04 00:35:30;;;;;;;20.33;10.40;;;;;;;;;;10441813;28;20364;-71
2021/01/04 00:40:40;;;;;;;17.73;8.70;;;;;;;;;;10459668;28;20192;-72
2021/01/04 00:45:43;;;;;;;17.87;9.80;;;;;;;;;;10461997;28;20316;-73
2021/01/04 00:50:51;;;;;;;18.47;9.80;;;;;;;;;;10457295;28;20201;-71
2021/01/04 00:55:59;;;;;;;19.00;9.93;;;;;;;;;;10461773;28;20246;-70
2021/01/04 01:01:03;;;;;;;18.30;10.30;;;;;;;;;;10460144;28;20209;-72
2021/01/04 01:06:12;;;;;;;19.00;9.77;;;;;;;;;;10452846;28;20243;-72
2021/01/04 01:11:15;;;;;;;18.97;9.40;;;;;;;;;;10464360;28;20281;-72
2021/01/04 01:16:24;;;;;;;14.87;6.43;;;;;;;;;;10450438;28;20292;-71
2021/01/04 01:21:27;;;;;;;14.30;8.20;;;;;;;;;;10451945;28;20189;-70
2021/01/04 01:26:53;;;;;;;17.07;9.30;;;;;;;;;;10455528;28;20213;-70
2021/01/04 01:32:22;;;;;;;18.83;9.70;;;;;;;;;;10444307;28;20270;-72
2021/01/04 01:37:34;;;;;;;19.87;9.73;;;;;;;;;;10405406;28;20236;-69
2021/01/04 01:42:46;;;;;;;20.43;11.10;;;;;;;;;;10413255;28;20181;-70
2021/01/04 01:47:52;;;;;;;19.93;10.17;;;;;;;;;;10446715;28;20701;-72
2021/01/04 01:53:02;;;;;;;21.53;11.00;;;;;;;;;;10442967;28;20205;-71
2021/01/04 01:58:24;;;;;;;18.97;10.47;;;;;;;;;;10431088;28;20254;-72
2021/01/04 02:03:28;;;;;;;21.10;11.30;;;;;;;;;;10456721;28;20242;-73
2021/01/04 02:08:34;;;;;;;14.10;7.13;;;;;;;;;;10443503;28;20209;-72
2021/01/04 02:13:39;;;;;;;20.80;11.30;;;;;;;;;;10419823;28;20299;-71
2021/01/04 02:18:47;;;;;;;16.70;9.43;;;;;;;;;;10432175;28;20236;-69
2021/01/04 02:24:02;;;;;;;17.40;8.63;;;;;;;;;;10413149;28;20189;-72
2021/01/04 02:29:06;;;;;;;16.57;8.97;;;;;;;;;;10442915;28;20295;-71
2021/01/04 02:34:09;;;;;;;16.73;8.43;;;;;;;;;;10409500;28;20355;-71
2021/01/04 02:39:13;;;;;;;18.83;9.97;;;;;;;;;;10455227;28;20271;-69
2021/01/04 02:44:14;;;;;;;19.20;10.77;;;;;;;;;;10462925;28;20316;-70
2021/01/04 02:49:21;;;;;;;22.17;12.00;;;;;;;;;;10454444;28;20192;-72
2021/01/04 02:54:27;;;;;;;20.23;11.73;;;;;;;;;;10445908;28;20208;-70
2021/01/04 02:59:37;;;;;;;21.57;11.80;;;;;;;;;;10450750;28;20262;-71
2021/01/04 03:04:39;;;;;;;22.53;11.47;;;;;;;;;;10453566;28;20205;-73
2021/01/04 03:09:43;;;;;;;17.37;8.73;;;;;;;;;;10446262;28;20735;-74
2021/01/04 03:14:50;;;;;;;19.13;9.67;;;;;;;;;;10439791;28;20228;-71
2021/01/04 03:19:54;;;;;;;20.40;10.93;;;;;;;;;;10461546;28;20185;-72
2021/01/04 03:24:57;;;;;;;24.87;12.27;;;;;;;;;;10471779;28;20576;-71
2021/01/04 03:29:58;;;;;;;22.33;11.40;;;;;;;;;;10457033;28;20256;-71
2021/01/04 03:35:00;;;;;;;20.33;10.97;;;;;;;;;;10431230;28;20530;-70
2021/01/04 03:40:03;;;;;;;21.10;11.63;;;;;;;;;;10440205;28;20189;-69
2021/01/04 03:45:05;;;;;;;23.30;11.93;;;;;;;;;;10438236;28;20239;-71
2021/01/04 03:50:07;;;;;;;21.57;11.80;;;;;;;;;;10464716;28;20204;-71
2021/01/04 03:55:10;;;;;;;21.07;11.60;;;;;;;;;;10441296;28;20229;-70
2021/01/04 04:00:14;;;;;;;23.43;11.80;;;;;;;;;;10435983;28;20193;-69
2021/01/04 04:05:16;;;;;;;21.37;11.23;;;;;;;;;;10462156;28;20235;-71
2021/01/04 04:10:20;;;;;;;19.80;10.50;;;;;;;;;;10464575;28;20698;-72
2021/01/04 04:15:22;;;;;;;19.80;10.70;;;;;;;;;;10456535;28;20637;-70
2021/01/04 04:20:24;;;;;;;19.40;10.50;;;;;;;;;;10453024;28;20315;-71
2021/01/04 04:25:27;;;;;;;17.97;10.43;;;;;;;;;;10432373;28;20292;-71
2021/01/04 04:30:29;;;;;;;20.37;10.80;;;;;;;;;;10460670;28;20522;-72
2021/01/04 04:35:31;;;;;;;20.83;11.00;;;;;;;;;;10441938;28;20217;-72
2021/01/04 04:40:34;;;;;;;18.47;10.03;;;;;;;;;;10437155;28;20192;-72
2021/01/04 04:45:36;;;;;;;21.43;11.53;;;;;;;;;;10460159;28;20308;-72
2021/01/04 04:50:43;;;;;;;12.03;5.70;;;;;;;;;;10430370;28;20216;-73
2021/01/04 04:56:03;;;;;;;6.73;2.70;;;;;;;;;;10459330;28;20302;-73
2021/01/04 05:01:11;;;;;;;17.13;8.37;;;;;;;;;;10437444;28;20193;-72
2021/01/04 05:06:21;;;;;;;15.90;9.27;;;;;;;;;;10425036;28;20348;-71
2021/01/04 05:11:29;;;;;;;16.97;8.63;;;;;;;;;;10435804;28;20787;-72
2021/01/04 05:16:41;;;;;;;18.77;9.43;;;;;;;;;;10469213;28;20213;-71
2021/01/04 05:21:51;;;;;;;18.33;10.03;;;;;;;;;;10469684;28;20330;-73
2021/01/04 05:27:16;;;;;;;17.63;9.20;;;;;;;;;;10445940;28;20318;-72
2021/01/04 05:32:23;;;;;;;18.30;9.53;;;;;;;;;;10454576;28;20588;-72
2021/01/04 05:37:30;;;;;;;17.63;9.43;;;;;;;;;;10451572;28;20300;-72
2021/01/04 05:42:37;;;;;;;15.60;8.90;;;;;;;;;;10450918;28;20217;-71
2021/01/04 05:47:46;;;;;;;18.10;9.93;;;;;;;;;;10461553;28;20301;-70
2021/01/04 05:52:49;;;;;;;19.23;10.00;;;;;;;;;;10446097;28;20696;-70
2021/01/04 05:57:51;;;;;;;17.83;9.50;;;;;;;;;;10440711;28;20223;-72
2021/01/04 06:03:03;;;;;;;19.37;9.83;;;;;;;;;;10456958;28;20514;-71
2021/01/04 06:08:05;;;;;;;19.70;10.80;;;;;;;;;;10450320;28;20677;-73
2021/01/04 06:13:11;;;;;;;20.63;10.50;;;;;;;;;;10446124;28;20312;-73
2021/01/04 06:18:22;;;;;;;18.47;10.23;;;;;;;;;;10445558;28;20522;-74
2021/01/04 06:23:26;;;;;;;19.23;10.67;;;;;;;;;;10451673;28;20235;-72
2021/01/04 06:28:27;;;;;;;18.93;10.97;;;;;;;;;;10455050;28;20691;-73
2021/01/04 06:33:30;;;;;;;18.43;10.23;;;;;;;;;;10445959;28;20228;-72
2021/01/04 06:38:33;;;;;;;20.63;10.33;;;;;;;;;;10432440;28;20626;-72
2021/01/04 06:43:36;;;;;;;19.57;10.43;;;;;;;;;;10442566;28;20173;-73
2021/01/04 06:48:41;;;;;;;20.13;11.53;;;;;;;;;;10443452;28;20708;-73
2021/01/04 06:53:53;;;;;;;15.33;7.27;;;;;;;;;;10436460;28;20216;-73
2021/01/04 06:59:09;;;;;;;22.47;11.40;;;;;;;;;;10448297;28;20201;-73
2021/01/04 07:04:21;;;;;;;20.00;10.13;;;;;;;;;;10419763;28;20224;-73
2021/01/04 07:09:38;;;;;;;21.27;11.27;;;;;;;;;;10443970;28;20203;-73
2021/01/04 07:14:54;;;;;;;24.13;12.27;;;;;;;;;;10449752;28;20660;-73
2021/01/04 07:20:02;;;;;;;25.00;11.67;;;;;;;;;;10443803;28;20955;-73
2021/01/04 07:25:08;;;;;;;23.00;11.77;;;;;;;;;;10448990;28;20295;-72
2021/01/04 07:30:18;;;;;;;23.53;10.93;;;;;;;;;;10448609;28;20206;-72
2021/01/04 07:35:22;;;;;;;27.37;13.30;;;;;;;;;;10450981;28;20209;-74
2021/01/04 07:40:36;;;;;;;24.70;12.17;;;;;;;;;;10455824;28;20185;-73
2021/01/04 07:45:46;;;;;;;27.07;12.20;;;;;;;;;;10452057;28;20227;-74
2021/01/04 07:51:06;;;;;;;25.47;12.57;;;;;;;;;;10449728;28;20303;-73
2021/01/04 07:56:22;;;;;;;23.97;12.10;;;;;;;;;;10424371;28;20216;-73
2021/01/04 08:01:33;;;;;;;29.37;13.80;;;;;;;;;;10463326;28;20285;-72
2021/01/04 08:06:52;;;;;;;28.87;13.40;;;;;;;;;;10456222;28;20200;-73
2021/01/04 08:12:21;;;;;;;26.63;12.50;;;;;;;;;;10466312;28;20700;-73
2021/01/04 08:17:27;;;;;;;28.50;13.27;;;;;;;;;;10436247;28;20285;-73
2021/01/04 08:22:47;;;;;;;28.37;13.17;;;;;;;;;;10452930;28;20341;-74
2021/01/04 08:27:59;;;;;;;25.53;13.67;;;;;;;;;;10433066;28;20235;-73
2021/01/04 08:33:05;;;;;;;27.33;14.53;;;;;;;;;;10447196;28;20228;-74
2021/01/04 08:38:21;;;;;;;26.70;14.00;;;;;;;;;;10447938;28;20219;-74
2021/01/04 08:43:31;;;;;;;23.70;12.87;;;;;;;;;;10447973;28;20979;-74
2021/01/04 08:48:35;;;;;;;24.97;13.10;;;;;;;;;;10432169;28;20209;-74
2021/01/04 08:53:37;;;;;;;29.90;14.30;;;;;;;;;;10446124;28;20307;-74
2021/01/04 08:58:40;;;;;;;28.83;13.90;;;;;;;;;;10431891;28;20240;-74
2021/01/04 09:03:43;;;;;;;25.67;12.67;;;;;;;;;;10411707;28;20202;-74
2021/01/04 09:08:48;;;;;;;25.30;12.77;;;;;;;;;;10426568;28;20699;-74
2021/01/04 09:13:50;;;;;;;28.43;14.13;;;;;;;;;;10458480;28;20197;-73
2021/01/04 09:18:55;;;;;;;25.13;13.37;;;;;;;;;;10448415;28;20197;-73
2021/01/04 09:24:09;;;;;;;28.63;13.50;;;;;;;;;;10454028;28;20191;-73
2021/01/04 09:29:21;;;;;;;28.53;13.10;;;;;;;;;;10432797;28;20204;-74
2021/01/04 09:34:23;;;;;;;27.23;13.17;;;;;;;;;;10428324;28;20589;-74
2021/01/04 09:39:26;;;;;;;26.73;13.60;;;;;;;;;;10457857;28;20196;-73
2021/01/04 09:44:28;;;;;;;27.07;13.53;;;;;;;;;;10435776;28;20208;-74
2021/01/04 09:49:34;;;;;;;27.83;14.30;;;;;;;;;;10426055;28;20221;-74
2021/01/04 09:54:38;;;;;;;29.97;14.37;;;;;;;;;;10417809;28;20297;-74
2021/01/04 09:59:41;;;;;;;30.63;14.83;;;;;;;;;;10427091;28;20264;-74
2021/01/04 10:04:44;;;;;;;27.03;13.53;;;;;;;;;;10454905;28;20239;-72
2021/01/04 10:09:47;;;;;;;27.10;13.97;;;;;;;;;;10440840;28;20202;-73
2021/01/04 10:14:51;;;;;;;12.10;5.27;;;;;;;;;;10413496;28;20306;-72
2021/01/04 10:19:56;;;;;;;18.40;7.73;;;;;;;;;;10454095;28;20663;-73
2021/01/04 10:25:02;;;;;;;21.37;9.73;;;;;;;;;;10455921;28;20288;-73
2021/01/04 10:30:05;;;;;;;13.60;6.70;;;;;;;;;;10452498;28;20339;-72
2021/01/04 10:35:18;;;;;;;32.20;15.07;;;;;;;;;;10452422;28;20224;-72
2021/01/04 10:40:46;;;;;;;30.50;13.93;;;;;;;;;;10434050;28;20208;-73
2021/01/04 10:45:48;;;;;;;30.33;14.80;;;;;;;;;;10463336;28;20210;-71
2021/01/04 10:50:51;;;;;;;27.33;12.93;;;;;;;;;;10442241;28;20186;-73
2021/01/04 10:55:57;;;;;;;29.77;14.07;;;;;;;;;;10449419;28;20220;-71
2021/01/04 11:01:03;;;;;;;32.77;16.20;;;;;;;;;;10444906;28;20554;-73
2021/01/04 11:06:14;;;;;;;31.23;15.90;;;;;;;;;;10440265;28;20211;-73
2021/01/04 11:11:26;;;;;;;31.53;16.87;;;;;;;;;;10407705;28;20304;-74
2021/01/04 11:16:28;;;;;;;32.70;17.00;;;;;;;;;;10421955;28;20275;-74
2021/01/04 11:21:36;;;;;;;31.37;16.87;;;;;;;;;;10448273;28;20246;-74
2021/01/04 11:26:37;;;;;;;31.17;16.33;;;;;;;;;;10447881;28;20644;-74
2021/01/04 11:31:40;;;;;;;28.90;16.53;;;;;;;;;;10452262;28;20346;-74
2021/01/04 11:36:43;;;;;;;31.30;16.13;;;;;;;;;;10461231;28;20208;-73
2021/01/04 11:41:44;;;;;;;32.60;17.00;;;;;;;;;;10460746;28;20200;-73
2021/01/04 11:46:46;;;;;;;30.83;17.00;;;;;;;;;;10455869;28;20535;-71
2021/01/04 11:51:50;;;;;;;32.50;17.37;;;;;;;;;;10430793;28;20201;-72
2021/01/04 11:56:51;;;;;;;34.17;17.67;;;;;;;;;;10451057;28;20216;-72
2021/01/04 12:01:53;;;;;;;27.10;13.90;;;;;;;;;;10456212;28;20216;-73
2021/01/04 12:06:56;;;;;;;37.97;18.80;;;;;;;;;;10454985;28;20712;-71
2021/01/04 12:11:57;;;;;;;45.57;22.47;;;;;;;;;;10443121;28;20817;-74
2021/01/04 12:17:03;;;;;;;42.50;21.70;;;;;;;;;;10457717;28;20212;-72
2021/01/04 12:22:07;;;;;;;36.77;19.80;;;;;;;;;;10463073;28;20261;-72
2021/01/04 12:27:09;;;;;;;41.33;21.50;;;;;;;;;;10419646;28;20584;-72
2021/01/04 12:32:11;;;;;;;34.73;19.00;;;;;;;;;;10433486;28;20981;-71
2021/01/04 12:37:13;;;;;;;33.63;17.20;;;;;;;;;;10445371;28;20216;-72
2021/01/04 12:42:15;;;;;;;14.20;5.80;;;;;;;;;;10440044;28;20280;-73
2021/01/04 12:47:17;;;;;;;13.97;6.50;;;;;;;;;;10446723;28;20225;-72
2021/01/04 12:52:19;;;;;;;37.23;19.07;;;;;;;;;;10421863;28;20208;-73
2021/01/04 12:57:24;;;;;;;35.53;18.33;;;;;;;;;;10436444;28;20260;-73
2021/01/04 13:02:25;;;;;;;34.87;18.97;;;;;;;;;;10437427;28;20180;-73
2021/01/04 13:07:29;;;;;;;33.60;17.20;;;;;;;;;;10427609;28;20244;-73
2021/01/04 13:12:30;;;;;;;34.50;18.60;;;;;;;;;;10438458;28;20264;-74
2021/01/04 13:17:32;;;;;;;32.43;17.23;;;;;;;;;;10432747;28;20212;-72
2021/01/04 13:22:34;;;;;;;36.33;17.80;;;;;;;;;;10454347;28;20185;-73
2021/01/04 13:27:36;;;;;;;38.63;17.63;;;;;;;;;;10448529;28;20243;-72
2021/01/04 13:32:37;;;;;;;31.93;16.93;;;;;;;;;;10441875;28;20275;-72
2021/01/04 13:37:41;;;;;;;33.80;16.50;;;;;;;;;;10421654;28;20209;-74
2021/01/04 13:42:42;;;;;;;33.30;17.43;;;;;;;;;;10422094;28;20604;-73
2021/01/04 13:47:44;;;;;;;30.77;15.53;;;;;;;;;;10448665;28;20225;-72
2021/01/04 13:52:46;;;;;;;32.27;16.70;;;;;;;;;;10432784;28;20219;-70
2021/01/04 13:57:48;;;;;;;32.57;15.73;;;;;;;;;;10460939;28;20216;-73
2021/01/04 14:02:49;;;;;;;30.87;13.50;;;;;;;;;;10447953;28;20254;-73
2021/01/04 14:07:52;;;;;;;31.60;15.70;;;;;;;;;;10462334;28;20295;-74
2021/01/04 14:12:54;;;;;;;29.17;14.77;;;;;;;;;;10463071;28;20236;-72
2021/01/04 14:17:56;;;;;;;29.83;15.50;;;;;;;;;;10448107;28;20210;-74
2021/01/04 14:22:59;;;;;;;23.13;10.27;;;;;;;;;;10441486;28;20244;-72
2021/01/04 14:28:00;;;;;;;27.30;12.50;;;;;;;;;;10433371;28;20208;-73
2021/01/04 14:33:03;;;;;;;30.70;15.53;;;;;;;;;;10452515;28;20557;-72
2021/01/04 14:38:06;;;;;;;30.93;14.50;;;;;;;;;;10447919;28;20266;-73
2021/01/04 14:43:08;;;;;;;32.20;15.37;;;;;;;;;;10444600;28;20197;-71
2021/01/04 14:48:09;;;;;;;32.03;14.27;;;;;;;;;;10446609;28;20304;-72
2021/01/04 14:53:12;;;;;;;34.83;15.57;;;;;;;;;;10442292;28;20245;-71
2021/01/04 14:58:13;;;;;;;30.97;14.17;;;;;;;;;;10438856;28;20252;-72
2021/01/04 15:03:15;;;;;;;30.50;14.07;;;;;;;;;;10446309;28;20189;-72
2021/01/04 15:08:17;;;;;;;25.07;12.53;;;;;;;;;;10455286;28;20278;-72
2021/01/04 15:13:19;;;;;;;31.00;13.90;;;;;;;;;;10447295;28;20688;-71
2021/01/04 15:18:20;;;;;;;21.87;9.67;;;;;;;;;;10450290;28;20316;-71
2021/01/04 15:23:23;;;;;;;30.37;14.60;;;;;;;;;;10446313;28;20197;-71
2021/01/04 15:28:24;;;;;;;35.47;16.03;;;;;;;;;;10438236;28;20633;-73
2021/01/04 15:33:26;;;;;;;32.07;15.23;;;;;;;;;;10432256;28;20241;-71
2021/01/04 15:38:29;;;;;;;28.60;13.53;;;;;;;;;;10410228;28;20236;-71
2021/01/04 15:43:30;;;;;;;29.77;14.20;;;;;;;;;;10403045;28;20623;-71
2021/01/04 15:48:32;;;;;;;29.13;13.17;;;;;;;;;;10424069;28;20245;-72
2021/01/04 15:53:34;;;;;;;25.67;12.33;;;;;;;;;;10429744;28;20296;-72
2021/01/04 15:58:36;;;;;;;25.27;11.97;;;;;;;;;;10435853;28;20690;-71
2021/01/04 16:03:37;;;;;;;27.03;13.17;;;;;;;;;;10453612;28;20272;-70
2021/01/04 16:08:41;;;;;;;23.90;12.77;;;;;;;;;;10451474;28;20228;-71
2021/01/04 16:13:43;;;;;;;28.90;12.80;;;;;;;;;;10450891;28;20607;-72
2021/01/04 16:18:45;;;;;;;29.87;13.53;;;;;;;;;;10446138;28;20209;-71
2021/01/04 16:23:47;;;;;;;21.00;9.27;;;;;;;;;;10445696;28;20289;-71
2021/01/04 16:28:48;;;;;;;23.97;10.77;;;;;;;;;;10462720;28;20236;-72
2021/01/04 16:33:51;;;;;;;27.90;11.50;;;;;;;;;;10466254;28;20216;-72
2021/01/04 16:38:54;;;;;;;23.93;10.47;;;;;;;;;;10461879;28;21047;-73
2021/01/04 16:43:56;;;;;;;25.13;11.13;;;;;;;;;;10434365;28;20307;-73
2021/01/04 16:48:58;;;;;;;22.33;10.10;;;;;;;;;;10474654;28;20228;-73
2021/01/04 16:54:00;;;;;;;20.50;10.07;;;;;;;;;;10427639;28;20672;-73
2021/01/04 16:59:02;;;;;;;19.90;9.23;;;;;;;;;;10451709;28;20185;-73
2021/01/04 17:04:04;;;;;;;18.13;8.30;;;;;;;;;;10447581;28;20181;-71
2021/01/04 17:09:07;;;;;;;21.67;9.67;;;;;;;;;;10460739;28;20201;-73
2021/01/04 17:14:09;;;;;;;20.33;8.57;;;;;;;;;;10458407;28;20296;-73
2021/01/04 17:19:11;;;;;;;16.00;6.10;;;;;;;;;;10469510;28;20275;-72
2021/01/04 17:24:14;;;;;;;19.60;8.90;;;;;;;;;;10453726;28;20653;-73
2021/01/04 17:29:16;;;;;;;20.60;9.37;;;;;;;;;;10446586;28;20493;-71
2021/01/04 17:34:18;;;;;;;21.37;8.80;;;;;;;;;;10452003;28;20758;-71
2021/01/04 17:39:20;;;;;;;11.47;4.67;;;;;;;;;;10443877;28;20193;-71
2021/01/04 17:44:22;;;;;;;14.63;5.97;;;;;;;;;;10457870;28;20208;-71
2021/01/04 17:49:23;;;;;;;17.17;6.83;;;;;;;;;;10455152;28;20263;-73
2021/01/04 17:54:26;;;;;;;21.53;10.13;;;;;;;;;;10446607;28;20221;-71
2021/01/04 17:59:27;;;;;;;21.20;8.67;;;;;;;;;;10464362;28;20235;-73
2021/01/04 18:04:29;;;;;;;20.53;7.70;;;;;;;;;;10441543;28;20217;-74
2021/01/04 18:09:31;;;;;;;19.60;8.83;;;;;;;;;;10453912;28;20246;-73
2021/01/04 18:14:33;;;;;;;21.47;9.27;;;;;;;;;;10463590;28;20699;-73
2021/01/04 18:19:34;;;;;;;11.57;4.70;;;;;;;;;;10470327;28;20250;-72
2021/01/04 18:24:37;;;;;;;20.53;9.33;;;;;;;;;;10458394;28;20212;-71
2021/01/04 18:29:39;;;;;;;18.60;6.60;;;;;;;;;;10461214;28;20222;-72
2021/01/04 18:34:41;;;;;;;19.90;9.33;;;;;;;;;;10456825;28;20225;-72
2021/01/04 18:39:45;;;;;;;22.10;9.13;;;;;;;;;;10451990;28;20201;-70
2021/01/04 18:44:47;;;;;;;22.43;10.13;;;;;;;;;;10453500;28;20279;-70
2021/01/04 18:49:49;;;;;;;23.33;9.67;;;;;;;;;;10447251;28;20288;-69
2021/01/04 18:54:53;;;;;;;16.40;6.67;;;;;;;;;;10446360;28;20201;-72
2021/01/04 18:59:58;;;;;;;9.17;4.20;;;;;;;;;;10420496;28;20279;-72
2021/01/04 19:05:00;;;;;;;23.17;9.03;;;;;;;;;;10445765;28;20209;-72
2021/01/04 19:10:05;;;;;;;23.83;9.70;;;;;;;;;;10438055;28;20190;-71
2021/01/04 19:15:08;;;;;;;14.67;6.73;;;;;;;;;;10431260;28;20723;-71
2021/01/04 19:20:11;;;;;;;20.23;9.43;;;;;;;;;;10434818;28;20193;-70
2021/01/04 19:25:14;;;;;;;23.27;9.87;;;;;;;;;;10426007;28;20714;-73
2021/01/04 19:30:18;;;;;;;23.87;10.03;;;;;;;;;;10437058;28;20280;-71
2021/01/04 19:35:19;;;;;;;23.80;9.97;;;;;;;;;;10428405;28;20212;-72
2021/01/04 19:40:22;;;;;;;21.77;10.27;;;;;;;;;;10440060;28;20263;-70
2021/01/04 19:45:24;;;;;;;20.43;9.17;;;;;;;;;;10430329;28;20672;-71
2021/01/04 19:50:25;;;;;;;22.53;9.37;;;;;;;;;;10437921;28;20185;-72
2021/01/04 19:55:27;;;;;;;18.17;7.17;;;;;;;;;;10447630;28;20244;-71
2021/01/04 20:00:29;;;;;;;21.07;8.27;;;;;;;;;;10440016;28;20184;-71
2021/01/04 20:05:31;;;;;;;19.23;8.80;;;;;;;;;;10439495;28;20296;-72
2021/01/04 20:10:33;;;;;;;22.97;10.73;;;;;;;;;;10434489;28;20243;-72
2021/01/04 20:15:35;;;;;;;23.30;10.87;;;;;;;;;;10435307;28;20292;-70
2021/01/04 20:20:36;;;;;;;21.73;9.53;;;;;;;;;;10435609;28;20254;-69
2021/01/04 20:25:39;;;;;;;20.87;8.40;;;;;;;;;;10442567;28;20216;-73
2021/01/04 20:30:40;;;;;;;18.37;7.63;;;;;;;;;;10411646;28;20198;-72
2021/01/04 20:35:42;;;;;;;22.57;9.90;;;;;;;;;;10447441;28;20604;-72
2021/01/04 20:40:45;;;;;;;11.00;4.40;;;;;;;;;;10439059;28;20254;-72
2021/01/04 20:45:46;;;;;;;20.33;8.87;;;;;;;;;;10442187;28;20260;-73
2021/01/04 20:50:48;;;;;;;23.20;10.57;;;;;;;;;;10442310;28;20259;-72
2021/01/04 20:55:50;;;;;;;21.47;9.40;;;;;;;;;;10450488;28;20303;-73
2021/01/04 21:00:52;;;;;;;13.77;6.03;;;;;;;;;;10453868;28;20204;-73
2021/01/04 21:05:54;;;;;;;23.33;10.47;;;;;;;;;;10457560;28;20780;-71
2021/01/04 21:10:57;;;;;;;19.30;8.60;;;;;;;;;;10445422;28;20255;-72
2021/01/04 21:16:00;;;;;;;23.33;11.00;;;;;;;;;;10451695;28;20292;-71
2021/01/04 21:21:02;;;;;;;25.97;10.53;;;;;;;;;;10452493;28;20193;-71
2021/01/04 21:26:05;;;;;;;21.73;8.73;;;;;;;;;;10442666;28;20204;-72
2021/01/04 21:31:07;;;;;;;24.23;9.70;;;;;;;;;;10430037;28;20221;-71
2021/01/04 21:36:09;;;;;;;26.70;11.03;;;;;;;;;;10440703;28;20300;-73
2021/01/04 21:41:12;;;;;;;23.80;10.00;;;;;;;;;;10449741;28;20189;-71
2021/01/04 21:46:18;;;;;;;22.13;11.07;;;;;;;;;;10443835;28;20213;-72
2021/01/04 21:51:26;;;;;;;25.03;11.73;;;;;;;;;;10464249;28;20673;-73
2021/01/04 21:56:31;;;;;;;24.03;10.03;;;;;;;;;;10455001;28;20216;-70
2021/01/04 22:01:32;;;;;;;27.00;11.50;;;;;;;;;;10437952;28;20193;-73
2021/01/04 22:06:34;;;;;;;23.33;10.13;;;;;;;;;;10446662;28;20292;-71
2021/01/04 22:11:36;;;;;;;22.93;10.33;;;;;;;;;;10438551;28;20280;-73
2021/01/04 22:16:38;;;;;;;22.97;10.77;;;;;;;;;;10445672;28;20661;-73
2021/01/04 22:21:39;;;;;;;24.60;9.50;;;;;;;;;;10436694;28;20661;-73
2021/01/04 22:26:42;;;;;;;22.17;8.70;;;;;;;;;;10438549;28;20297;-73
2021/01/04 22:31:44;;;;;;;22.30;10.43;;;;;;;;;;10439135;28;20252;-74
2021/01/04 22:36:45;;;;;;;23.00;10.63;;;;;;;;;;10458226;28;20251;-72
2021/01/04 22:41:51;;;;;;;23.43;9.90;;;;;;;;;;10443520;28;20189;-72
2021/01/04 22:46:53;;;;;;;23.00;10.40;;;;;;;;;;10432050;28;20209;-72
2021/01/04 22:51:55;;;;;;;23.00;11.00;;;;;;;;;;10423065;28;20451;-70
2021/01/04 22:56:57;;;;;;;21.73;8.97;;;;;;;;;;10422806;28;20676;-72
2021/01/04 23:01:59;;;;;;;24.13;12.07;;;;;;;;;;10445165;28;20366;-74
2021/01/04 23:07:01;;;;;;;15.40;7.60;;;;;;;;;;10424915;28;20630;-71
2021/01/04 23:12:06;;;;;;;25.10;11.70;;;;;;;;;;10452744;28;20248;-70
2021/01/04 23:17:08;;;;;;;22.33;10.97;;;;;;;;;;10460090;28;20470;-72
2021/01/04 23:22:09;;;;;;;22.70;10.03;;;;;;;;;;10429003;28;20210;-72
2021/01/04 23:27:19;;;;;;;22.93;11.07;;;;;;;;;;10452265;28;20262;-71
2021/01/04 23:32:21;;;;;;;16.07;7.53;;;;;;;;;;10453292;28;20683;-71
2021/01/04 23:37:22;;;;;;;27.23;12.03;;;;;;;;;;10440400;28;20588;-73
2021/01/04 23:42:25;;;;;;;25.17;12.33;;;;;;;;;;10459202;28;20213;-72
2021/01/04 23:47:26;;;;;;;27.40;11.83;;;;;;;;;;10455350;28;20287;-72
2021/01/04 23:52:28;;;;;;;23.47;11.77;;;;;;;;;;10448409;28;20740;-73
2021/01/04 23:57:30;;;;;;;24.77;11.97;;;;;;;;;;10438737;28;20208;-73
